Time,TemperatureF,DewpointF,PressureIn,WindDirection,WindDirectionDegrees,WindSpeedMPH,WindSpeedGustMPH,Humidity,HourlyPrecipIn,Conditions,Clouds,dailyrainin,SoftwareType,DateUTC
2013-04-08 00:00:00,51.8,33.3,29.56,South,175,3.1,3.1,49,0.00,,---,0.00,VWS V14.00,2013-04-08 07:00:00,
2013-04-08 00:05:00,51.8,33.3,29.56,SSW,201,5.4,5.4,49,0.00,,---,0.00,VWS V14.00,2013-04-08 07:05:00,
2013-04-08 00:10:00,52.0,33.9,29.56,SE,133,4.0,5.8,50,0.00,,---,0.00,VWS V14.00,2013-04-08 07:10:00,
2013-04-08 00:16:00,52.0,33.9,29.56,South,181,3.6,3.6,50,0.00,,---,0.00,VWS V14.00,2013-04-08 07:16:00,
2013-04-08 00:22:00,51.8,33.8,29.56,SSE,159,6.3,8.3,50,0.00,,---,0.00,VWS V14.00,2013-04-08 07:22:00,
2013-04-08 00:27:00,51.8,34.8,29.56,SSE,148,5.8,7.2,52,0.00,,---,0.00,VWS V14.00,2013-04-08 07:27:00,
2013-04-08 00:32:00,51.8,35.2,29.56,SSW,194,5.4,5.4,53,0.00,,---,0.00,VWS V14.00,2013-04-08 07:32:00,
2013-04-08 00:37:00,51.8,35.2,29.53,SSE,156,4.9,5.8,53,0.00,,---,0.00,VWS V14.00,2013-04-08 07:37:00,
2013-04-08 00:43:00,51.6,35.5,29.53,SSW,203,2.7,6.3,54,0.00,,---,0.00,VWS V14.00,2013-04-08 07:43:00,
2013-04-08 00:49:00,51.4,35.4,29.53,SSW,199,4.9,7.6,54,0.00,,---,0.00,VWS V14.00,2013-04-08 07:49:00,
2013-04-08 00:54:00,51.3,35.7,29.53,South,186,6.3,6.3,55,0.00,,---,0.00,VWS V14.00,2013-04-08 07:54:00,
2013-04-08 00:59:00,50.9,35.8,29.53,SSE,159,3.1,4.0,56,0.00,,---,0.00,VWS V14.00,2013-04-08 07:59:00,
2013-04-08 01:05:00,50.7,35.6,29.53,SSE,157,3.6,4.0,56,0.00,,---,0.00,VWS V14.00,2013-04-08 08:05:00,
2013-04-08 01:10:00,50.5,35.9,29.53,SSE,160,4.9,4.9,57,0.00,,---,0.00,VWS V14.00,2013-04-08 08:10:00,
2013-04-08 01:15:00,50.5,36.3,29.53,SE,143,4.0,4.9,58,0.00,,---,0.00,VWS V14.00,2013-04-08 08:15:00,
2013-04-08 01:21:00,50.4,36.6,29.50,SSE,160,3.6,4.0,59,0.00,,---,0.00,VWS V14.00,2013-04-08 08:21:00,
2013-04-08 01:27:00,50.2,36.4,29.50,ESE,106,4.0,4.0,59,0.00,,---,0.00,VWS V14.00,2013-04-08 08:27:00,
2013-04-08 01:33:00,50.2,37.3,29.50,South,175,0.0,2.2,61,0.00,,---,0.00,VWS V14.00,2013-04-08 08:33:00,
2013-04-08 01:38:00,50.2,36.8,29.50,SSE,165,0.0,2.2,60,0.00,,---,0.00,VWS V14.00,2013-04-08 08:38:00,
2013-04-08 01:43:00,50.0,36.7,29.50,SSE,151,3.6,3.6,60,0.00,,---,0.00,VWS V14.00,2013-04-08 08:43:00,
2013-04-08 01:48:00,50.0,36.7,29.50,SE,131,4.0,4.0,60,0.00,,---,0.00,VWS V14.00,2013-04-08 08:48:00,
2013-04-08 01:54:00,50.0,36.7,29.50,SE,129,0.0,0.0,60,0.00,,---,0.00,VWS V14.00,2013-04-08 08:54:00,
2013-04-08 02:00:00,50.2,36.8,29.50,NNW,344,0.0,0.0,60,0.00,,---,0.00,VWS V14.00,2013-04-08 09:00:00,
2013-04-08 02:06:00,50.2,36.8,29.50,NNW,344,0.0,0.0,60,0.00,,---,0.00,VWS V14.00,2013-04-08 09:06:00,
2013-04-08 02:11:00,50.2,36.8,29.50,NNW,344,0.0,0.0,60,0.00,,---,0.00,VWS V14.00,2013-04-08 09:11:00,
2013-04-08 02:16:00,50.2,37.3,29.50,West,265,0.0,0.0,61,0.00,,---,0.00,VWS V14.00,2013-04-08 09:16:00,
2013-04-08 02:22:00,50.0,37.5,29.50,WSW,251,0.0,0.0,62,0.00,,---,0.00,VWS V14.00,2013-04-08 09:22:00,
2013-04-08 02:27:00,50.0,37.5,29.50,WSW,256,0.0,0.0,62,0.00,,---,0.00,VWS V14.00,2013-04-08 09:27:00,
2013-04-08 02:33:00,50.0,37.5,29.50,WNW,291,0.0,0.0,62,0.00,,---,0.00,VWS V14.00,2013-04-08 09:33:00,
2013-04-08 02:39:00,49.8,37.8,29.50,WSW,255,0.0,2.7,63,0.00,,---,0.00,VWS V14.00,2013-04-08 09:39:00,
2013-04-08 02:45:00,49.5,37.4,29.50,WSW,237,0.0,3.1,63,0.00,,---,0.00,VWS V14.00,2013-04-08 09:45:00,
2013-04-08 02:51:00,49.3,37.2,29.50,WSW,254,2.7,2.7,63,0.00,,---,0.00,VWS V14.00,2013-04-08 09:51:00,
2013-04-08 02:56:00,49.1,37.5,29.50,West,259,0.0,0.0,64,0.00,,---,0.00,VWS V14.00,2013-04-08 09:56:00,
2013-04-08 03:01:00,49.1,37.5,29.50,WNW,299,2.2,3.6,64,0.00,,---,0.00,VWS V14.00,2013-04-08 10:01:00,
2013-04-08 03:07:00,48.9,37.7,29.50,NW,308,4.0,4.0,65,0.00,,---,0.00,VWS V14.00,2013-04-08 10:07:00,
2013-04-08 03:13:00,48.9,37.7,29.50,WNW,284,3.1,3.1,65,0.00,,---,0.00,VWS V14.00,2013-04-08 10:13:00,
2013-04-08 03:18:00,48.7,37.9,29.50,WNW,297,4.0,4.9,66,0.00,,---,0.00,VWS V14.00,2013-04-08 10:18:00,
2013-04-08 03:24:00,48.7,37.9,29.50,WNW,292,2.7,4.0,66,0.00,,---,0.00,VWS V14.00,2013-04-08 10:24:00,
2013-04-08 03:31:00,48.7,37.5,29.50,NW,319,4.0,4.0,65,0.00,,---,0.00,VWS V14.00,2013-04-08 10:31:00,
2013-04-08 03:36:00,48.7,37.5,29.50,WNW,294,4.9,7.6,65,0.00,,---,0.00,VWS V14.00,2013-04-08 10:36:00,
2013-04-08 03:41:00,48.7,37.1,29.50,WNW,291,5.8,5.8,64,0.00,,---,0.00,VWS V14.00,2013-04-08 10:41:00,
2013-04-08 03:46:00,48.7,36.3,29.50,NNW,343,4.0,6.3,62,0.00,,---,0.00,VWS V14.00,2013-04-08 10:46:00,
2013-04-08 03:51:00,48.9,36.1,29.50,WNW,295,7.6,7.6,61,0.00,,---,0.00,VWS V14.00,2013-04-08 10:51:00,
2013-04-08 03:56:00,49.1,35.0,29.50,West,264,8.1,8.7,58,0.00,,---,0.00,VWS V14.00,2013-04-08 10:56:00,
2013-04-08 04:02:00,49.3,35.1,29.50,WNW,303,8.3,8.3,58,0.00,,---,0.00,VWS V14.00,2013-04-08 11:02:00,
2013-04-08 04:08:00,49.5,34.4,29.53,NNW,328,5.8,10.5,56,0.00,,---,0.00,VWS V14.00,2013-04-08 11:08:00,
2013-04-08 04:13:00,49.6,34.6,29.53,NW,321,5.8,5.8,56,0.00,,---,0.00,VWS V14.00,2013-04-08 11:13:00,
2013-04-08 04:18:00,49.6,33.7,29.53,NW,324,6.3,6.3,54,0.00,,---,0.00,VWS V14.00,2013-04-08 11:18:00,
2013-04-08 04:23:00,49.8,33.4,29.53,North,2,8.7,9.6,53,0.00,,---,0.00,VWS V14.00,2013-04-08 11:23:00,
2013-04-08 04:29:00,49.8,33.9,29.53,North,350,8.1,12.3,54,0.00,,---,0.00,VWS V14.00,2013-04-08 11:29:00,
2013-04-08 04:35:00,49.8,33.9,29.53,NNW,342,6.3,6.3,54,0.00,,---,0.00,VWS V14.00,2013-04-08 11:35:00,
2013-04-08 04:41:00,49.8,33.9,29.53,NNW,339,4.0,7.6,54,0.00,,---,0.00,VWS V14.00,2013-04-08 11:41:00,
2013-04-08 04:47:00,49.8,33.4,29.53,North,357,9.6,9.6,53,0.00,,---,0.00,VWS V14.00,2013-04-08 11:47:00,
2013-04-08 04:52:00,49.8,33.4,29.53,North,353,6.3,7.2,53,0.00,,---,0.00,VWS V14.00,2013-04-08 11:52:00,
2013-04-08 04:57:00,49.6,32.8,29.53,NW,316,8.1,9.6,52,0.00,,---,0.00,VWS V14.00,2013-04-08 11:57:00,
2013-04-08 05:02:00,49.6,32.8,29.53,WNW,285,4.0,6.3,52,0.00,,---,0.00,VWS V14.00,2013-04-08 12:02:00,
2013-04-08 05:08:00,49.5,32.6,29.53,NW,323,5.8,6.3,52,0.00,,---,0.00,VWS V14.00,2013-04-08 12:08:00,
2013-04-08 05:13:00,49.3,32.4,29.53,NW,325,5.4,5.4,52,0.00,,---,0.00,VWS V14.00,2013-04-08 12:13:00,
2013-04-08 05:19:00,49.1,32.2,29.53,WNW,287,7.6,8.1,52,0.00,,---,0.00,VWS V14.00,2013-04-08 12:19:00,
2013-04-08 05:24:00,49.3,31.9,29.53,NNW,338,5.4,5.4,51,0.00,,---,0.00,VWS V14.00,2013-04-08 12:24:00,
2013-04-08 05:30:00,49.1,31.8,29.53,WNW,287,7.6,7.6,51,0.00,,---,0.00,VWS V14.00,2013-04-08 12:30:00,
2013-04-08 05:36:00,49.1,31.3,29.50,NW,315,3.1,3.1,50,0.00,,---,0.00,VWS V14.00,2013-04-08 12:36:00,
2013-04-08 05:41:00,48.9,31.1,29.50,West,259,6.3,6.3,50,0.00,,---,0.00,VWS V14.00,2013-04-08 12:41:00,
2013-04-08 05:47:00,48.9,31.1,29.50,West,274,3.6,5.8,50,0.00,,---,0.00,VWS V14.00,2013-04-08 12:47:00,
2013-04-08 05:52:00,48.7,31.0,29.53,WNW,283,11.4,11.4,50,0.00,,---,0.00,VWS V14.00,2013-04-08 12:52:00,
2013-04-08 05:58:00,48.7,29.9,29.53,West,270,8.1,8.1,48,0.00,,---,0.00,VWS V14.00,2013-04-08 12:58:00,
2013-04-08 06:03:00,48.7,29.9,29.53,WNW,288,8.7,8.7,48,0.00,,---,0.00,VWS V14.00,2013-04-08 13:03:00,
2013-04-08 06:08:00,48.6,29.3,29.53,NW,311,4.9,5.8,47,0.00,,---,0.00,VWS V14.00,2013-04-08 13:08:00,
2013-04-08 06:14:00,48.6,29.3,29.53,WNW,300,8.1,8.1,47,0.00,,---,0.00,VWS V14.00,2013-04-08 13:14:00,
2013-04-08 06:19:00,48.6,28.7,29.53,North,357,5.4,6.3,46,0.00,,---,0.00,VWS V14.00,2013-04-08 13:19:00,
2013-04-08 06:25:00,48.6,28.7,29.53,NW,321,7.6,7.6,46,0.00,,---,0.00,VWS V14.00,2013-04-08 13:25:00,
2013-04-08 06:30:00,48.6,28.2,29.53,WNW,285,2.7,5.4,45,0.00,,---,0.00,VWS V14.00,2013-04-08 13:30:00,
2013-04-08 06:35:00,48.6,27.1,29.53,WNW,285,6.3,6.3,43,0.00,,---,0.00,VWS V14.00,2013-04-08 13:35:00,
2013-04-08 06:40:00,48.6,27.1,29.53,NW,305,7.2,7.2,43,0.00,,---,0.00,VWS V14.00,2013-04-08 13:40:00,
2013-04-08 06:45:00,48.6,24.7,29.56,NW,314,8.7,12.8,39,0.00,,---,0.00,VWS V14.00,2013-04-08 13:45:00,
2013-04-08 06:50:00,48.7,24.3,29.56,NW,319,5.8,8.7,38,0.00,,---,0.00,VWS V14.00,2013-04-08 13:50:00,
2013-04-08 06:56:00,48.6,24.1,29.56,North,4,5.4,5.8,38,0.00,,---,0.00,VWS V14.00,2013-04-08 13:56:00,
2013-04-08 07:01:00,48.4,24.0,29.56,North,357,7.6,7.6,38,0.00,,---,0.00,VWS V14.00,2013-04-08 14:01:00,
2013-04-08 07:06:00,48.4,23.3,29.56,North,349,9.2,9.2,37,0.00,,---,0.00,VWS V14.00,2013-04-08 14:06:00,
2013-04-08 07:11:00,48.6,22.2,29.56,NW,307,8.1,13.2,35,0.00,,---,0.00,VWS V14.00,2013-04-08 14:11:00,
2013-04-08 07:17:00,48.9,21.8,29.56,NNW,329,8.1,8.1,34,0.00,,---,0.00,VWS V14.00,2013-04-08 14:17:00,
2013-04-08 07:22:00,48.7,21.6,29.59,NNW,345,11.0,11.9,34,0.00,,---,0.00,VWS V14.00,2013-04-08 14:22:00,
2013-04-08 07:28:00,48.6,22.2,29.59,North,353,6.3,6.3,35,0.00,,---,0.00,VWS V14.00,2013-04-08 14:28:00,
2013-04-08 07:33:00,48.6,20.8,29.59,North,353,12.3,18.3,33,0.00,,---,0.00,VWS V14.00,2013-04-08 14:33:00,
2013-04-08 07:39:00,49.1,19.8,29.59,North,6,15.4,15.4,31,0.00,,---,0.00,VWS V14.00,2013-04-08 14:39:00,
2013-04-08 07:44:00,49.5,19.3,29.59,NNW,339,15.4,18.3,30,0.00,,---,0.00,VWS V14.00,2013-04-08 14:44:00,
2013-04-08 07:50:00,49.8,20.4,29.62,North,357,10.1,10.1,31,0.00,,---,0.00,VWS V14.00,2013-04-08 14:50:00,
2013-04-08 07:55:00,50.0,19.8,29.62,NW,316,8.1,8.7,30,0.00,,---,0.00,VWS V14.00,2013-04-08 14:55:00,
2013-04-08 08:00:00,50.2,20.0,29.62,WNW,286,5.8,12.8,30,0.00,,---,0.00,VWS V14.00,2013-04-08 15:00:00,
2013-04-08 08:06:00,50.4,20.1,29.62,NNW,338,8.7,8.7,30,0.00,,---,0.00,VWS V14.00,2013-04-08 15:06:00,
2013-04-08 08:11:00,50.5,19.5,29.62,NW,309,23.3,23.3,29,0.00,,---,0.00,VWS V14.00,2013-04-08 15:11:00,
2013-04-08 08:16:00,50.7,19.6,29.62,WNW,293,8.1,8.3,29,0.00,,---,0.00,VWS V14.00,2013-04-08 15:16:00,
2013-04-08 08:21:00,51.1,20.0,29.62,NNW,341,8.1,12.8,29,0.00,,---,0.00,VWS V14.00,2013-04-08 15:21:00,
2013-04-08 08:27:00,51.6,19.6,29.62,NNW,331,10.1,10.1,28,0.00,,---,0.00,VWS V14.00,2013-04-08 15:27:00,
2013-04-08 08:32:00,51.8,19.8,29.62,NW,317,13.2,13.2,28,0.00,,---,0.00,VWS V14.00,2013-04-08 15:32:00,
2013-04-08 08:37:00,52.3,19.4,29.62,NE,54,9.2,21.5,27,0.00,,---,0.00,VWS V14.00,2013-04-08 15:37:00,
2013-04-08 08:42:00,52.9,19.8,29.62,North,353,13.2,13.2,27,0.00,,---,0.00,VWS V14.00,2013-04-08 15:42:00,
2013-04-08 08:48:00,52.9,19.8,29.62,NW,313,8.3,16.3,27,0.00,,---,0.00,VWS V14.00,2013-04-08 15:48:00,
2013-04-08 08:53:00,53.4,20.3,29.62,NW,317,8.7,8.7,27,0.00,,---,0.00,VWS V14.00,2013-04-08 15:53:00,
2013-04-08 08:58:00,53.8,19.7,29.62,WNW,286,8.7,8.7,26,0.00,,---,0.00,VWS V14.00,2013-04-08 15:58:00,
2013-04-08 09:03:00,54.0,19.9,29.62,NNW,346,12.8,16.3,26,0.00,,---,0.00,VWS V14.00,2013-04-08 16:03:00,
2013-04-08 09:10:00,54.1,20.0,29.62,NNW,331,12.8,12.8,26,0.00,,---,0.00,VWS V14.00,2013-04-08 16:10:00,
2013-04-08 09:15:00,54.5,20.3,29.62,NNE,28,9.2,11.0,26,0.00,,---,0.00,VWS V14.00,2013-04-08 16:15:00,
2013-04-08 09:21:00,54.9,20.6,29.62,WNW,292,23.7,23.7,26,0.00,,---,0.00,VWS V14.00,2013-04-08 16:21:00,
2013-04-08 09:26:00,54.9,20.6,29.62,NNW,332,6.3,11.0,26,0.00,,---,0.00,VWS V14.00,2013-04-08 16:26:00,
2013-04-08 09:31:00,55.6,20.3,29.62,North,6,16.8,16.8,25,0.00,,---,0.00,VWS V14.00,2013-04-08 16:31:00,
2013-04-08 09:37:00,55.6,20.3,29.62,North,353,12.3,12.3,25,0.00,,---,0.00,VWS V14.00,2013-04-08 16:37:00,
2013-04-08 09:42:00,55.9,20.6,29.62,West,273,9.2,19.7,25,0.00,,---,0.00,VWS V14.00,2013-04-08 16:42:00,
2013-04-08 09:47:00,56.1,20.8,29.62,NNW,327,12.8,17.0,25,0.00,,---,0.00,VWS V14.00,2013-04-08 16:47:00,
2013-04-08 09:52:00,55.9,20.6,29.62,WNW,301,17.4,26.6,25,0.00,,---,0.00,VWS V14.00,2013-04-08 16:52:00,
2013-04-08 09:58:00,56.1,20.8,29.62,NNW,339,15.0,15.0,25,0.00,,---,0.00,VWS V14.00,2013-04-08 16:58:00,
2013-04-08 10:03:00,56.7,21.3,29.62,North,0,19.7,19.7,25,0.00,,---,0.00,VWS V14.00,2013-04-08 17:03:00,
2013-04-08 10:10:00,57.2,20.8,29.62,NW,307,13.2,15.4,24,0.00,,---,0.00,VWS V14.00,2013-04-08 17:10:00,
2013-04-08 10:16:00,57.2,20.8,29.62,NW,315,13.2,13.2,24,0.00,,---,0.00,VWS V14.00,2013-04-08 17:16:00,
2013-04-08 10:22:00,57.7,21.2,29.62,North,0,10.5,23.7,24,0.00,,---,0.00,VWS V14.00,2013-04-08 17:22:00,
2013-04-08 10:27:00,57.9,21.4,29.65,WNW,300,12.8,12.8,24,0.00,,---,0.00,VWS V14.00,2013-04-08 17:27:00,
2013-04-08 10:33:00,58.3,21.7,29.65,NNW,333,12.8,17.4,24,0.00,,---,0.00,VWS V14.00,2013-04-08 17:33:00,
2013-04-08 10:38:00,58.5,19.8,29.65,NW,322,13.6,13.6,22,0.00,,---,0.00,VWS V14.00,2013-04-08 17:38:00,
2013-04-08 10:44:00,58.5,19.8,29.65,NNE,12,18.8,22.4,22,0.00,,---,0.00,VWS V14.00,2013-04-08 17:44:00,
2013-04-08 10:50:00,58.5,19.8,29.65,North,5,13.2,13.2,22,0.00,,---,0.00,VWS V14.00,2013-04-08 17:50:00,
2013-04-08 10:55:00,59.2,20.4,29.65,NW,313,14.1,14.1,22,0.00,,---,0.00,VWS V14.00,2013-04-08 17:55:00,
2013-04-08 11:00:00,58.8,20.1,29.65,NNE,16,16.8,16.8,22,0.00,,---,0.00,VWS V14.00,2013-04-08 18:00:00,
2013-04-08 11:05:00,58.8,20.1,29.65,North,350,5.8,11.0,22,0.00,,---,0.00,VWS V14.00,2013-04-08 18:05:00,
2013-04-08 11:11:00,59.0,20.2,29.65,NNW,335,11.9,11.9,22,0.00,,---,0.00,VWS V14.00,2013-04-08 18:11:00,
2013-04-08 11:17:00,59.4,20.5,29.65,NNW,329,11.0,11.0,22,0.00,,---,0.00,VWS V14.00,2013-04-08 18:17:00,
2013-04-08 11:23:00,59.5,17.3,29.65,NW,304,14.5,14.5,19,0.04,,---,0.04,VWS V14.00,2013-04-08 18:23:00,
2013-04-08 11:29:00,59.7,17.4,29.65,West,277,8.1,19.7,19,0.04,,---,0.04,VWS V14.00,2013-04-08 18:29:00,
2013-04-08 11:35:00,60.3,21.3,29.68,NNW,332,12.3,12.3,22,0.04,,---,0.04,VWS V14.00,2013-04-08 18:35:00,
2013-04-08 11:41:00,60.4,18.0,29.68,North,353,8.3,20.6,19,0.04,,---,0.04,VWS V14.00,2013-04-08 18:41:00,
2013-04-08 11:46:00,60.8,18.3,29.68,NNW,330,14.5,14.5,19,0.04,,---,0.04,VWS V14.00,2013-04-08 18:46:00,
2013-04-08 11:51:00,61.0,18.5,29.65,NW,320,10.5,11.0,19,0.04,,---,0.04,VWS V14.00,2013-04-08 18:51:00,
2013-04-08 11:56:00,61.3,18.8,29.65,NW,315,18.8,18.8,19,0.04,,---,0.04,VWS V14.00,2013-04-08 18:56:00,
2013-04-08 12:02:00,61.3,18.8,29.65,NNW,338,10.5,17.4,19,0.04,,---,0.04,VWS V14.00,2013-04-08 19:02:00,
2013-04-08 12:08:00,61.9,19.2,29.65,NNW,344,15.0,15.0,19,0.04,,---,0.04,VWS V14.00,2013-04-08 19:08:00,
2013-04-08 12:13:00,62.1,19.3,29.65,NNW,334,15.0,15.0,19,0.04,,---,0.04,VWS V14.00,2013-04-08 19:13:00,
2013-04-08 12:18:00,62.2,19.5,29.65,NW,315,16.8,23.7,19,0.04,,---,0.04,VWS V14.00,2013-04-08 19:18:00,
2013-04-08 12:24:00,62.1,19.3,29.65,NNW,338,13.2,13.2,19,0.00,,---,0.04,VWS V14.00,2013-04-08 19:24:00,
2013-04-08 12:30:00,62.2,19.5,29.65,NW,318,14.5,15.4,19,0.00,,---,0.04,VWS V14.00,2013-04-08 19:30:00,
2013-04-08 12:35:00,62.4,19.6,29.65,WNW,301,14.5,14.5,19,0.00,,---,0.04,VWS V14.00,2013-04-08 19:35:00,
2013-04-08 12:40:00,62.8,18.7,29.65,NNW,336,11.0,11.9,18,0.00,,---,0.04,VWS V14.00,2013-04-08 19:40:00,
2013-04-08 12:46:00,63.1,19.0,29.65,NW,319,10.1,14.1,18,0.00,,---,0.04,VWS V14.00,2013-04-08 19:46:00,
2013-04-08 12:51:00,63.5,19.3,29.65,WNW,299,15.0,15.0,18,0.00,,---,0.04,VWS V14.00,2013-04-08 19:51:00,
2013-04-08 12:56:00,63.5,19.3,29.65,WNW,297,21.5,21.5,18,0.00,,---,0.04,VWS V14.00,2013-04-08 19:56:00,
2013-04-08 13:01:00,63.1,19.0,29.65,NW,320,8.1,16.8,18,0.00,,---,0.04,VWS V14.00,2013-04-08 20:01:00,
2013-04-08 13:06:00,63.5,19.3,29.65,West,265,7.6,10.1,18,0.00,,---,0.04,VWS V14.00,2013-04-08 20:06:00,
2013-04-08 13:12:00,63.9,16.8,29.65,North,357,15.0,15.0,16,0.00,,---,0.04,VWS V14.00,2013-04-08 20:12:00,
2013-04-08 13:17:00,64.0,17.0,29.65,WNW,302,14.1,14.1,16,0.00,,---,0.04,VWS V14.00,2013-04-08 20:17:00,
2013-04-08 13:22:00,64.0,17.0,29.65,West,265,10.5,10.5,16,0.00,,---,0.04,VWS V14.00,2013-04-08 20:22:00,
2013-04-08 13:28:00,64.4,15.8,29.65,NNW,331,9.6,17.4,15,0.00,,---,0.04,VWS V14.00,2013-04-08 20:28:00,
2013-04-08 13:33:00,64.8,16.1,29.65,North,0,16.8,16.8,15,0.00,,---,0.04,VWS V14.00,2013-04-08 20:33:00,
2013-04-08 13:39:00,65.1,16.4,29.65,WNW,293,15.4,15.4,15,0.00,,---,0.04,VWS V14.00,2013-04-08 20:39:00,
2013-04-08 13:45:00,64.9,16.2,29.65,WNW,292,11.0,11.0,15,0.00,,---,0.04,VWS V14.00,2013-04-08 20:45:00,
2013-04-08 13:51:00,65.1,16.4,29.65,NE,45,13.2,16.8,15,0.00,,---,0.04,VWS V14.00,2013-04-08 20:51:00,
2013-04-08 13:57:00,65.8,16.9,29.65,NNW,328,8.7,15.4,15,0.00,,---,0.04,VWS V14.00,2013-04-08 20:57:00,
2013-04-08 14:03:00,65.8,16.9,29.65,North,353,12.3,14.5,15,0.00,,---,0.04,VWS V14.00,2013-04-08 21:03:00,
2013-04-08 14:08:00,65.8,16.9,29.65,North,3,12.8,23.7,15,0.00,,---,0.04,VWS V14.00,2013-04-08 21:08:00,
2013-04-08 14:14:00,65.5,16.6,29.65,NNW,329,15.9,17.4,15,0.00,,---,0.04,VWS V14.00,2013-04-08 21:14:00,
2013-04-08 14:19:00,65.3,16.5,29.65,NNW,339,10.5,10.5,15,0.00,,---,0.04,VWS V14.00,2013-04-08 21:19:00,
2013-04-08 14:25:00,65.8,16.9,29.65,NW,324,12.3,12.3,15,0.00,,---,0.04,VWS V14.00,2013-04-08 21:25:00,
2013-04-08 14:30:00,66.2,17.2,29.65,West,264,12.8,12.8,15,0.00,,---,0.04,VWS V14.00,2013-04-08 21:30:00,
2013-04-08 14:35:00,66.2,17.2,29.65,NW,319,8.7,8.7,15,0.00,,---,0.04,VWS V14.00,2013-04-08 21:35:00,
2013-04-08 14:41:00,66.7,17.6,29.65,NNW,329,8.3,13.2,15,0.00,,---,0.04,VWS V14.00,2013-04-08 21:41:00,
2013-04-08 14:46:00,66.9,17.8,29.65,NNW,344,13.2,13.6,15,0.00,,---,0.04,VWS V14.00,2013-04-08 21:46:00,
2013-04-08 14:52:00,66.7,17.6,29.65,NW,307,11.9,11.9,15,0.00,,---,0.04,VWS V14.00,2013-04-08 21:52:00,
2013-04-08 14:57:00,66.4,17.4,29.65,North,2,8.7,10.5,15,0.00,,---,0.04,VWS V14.00,2013-04-08 21:57:00,
2013-04-08 15:03:00,66.4,17.4,29.65,NNW,335,14.5,14.5,15,0.00,,---,0.04,VWS V14.00,2013-04-08 22:03:00,
2013-04-08 15:08:00,66.2,17.2,29.65,NW,324,18.3,18.3,15,0.00,,---,0.04,VWS V14.00,2013-04-08 22:08:00,
2013-04-08 15:13:00,66.2,17.2,29.65,WNW,300,8.1,8.1,15,0.00,,---,0.04,VWS V14.00,2013-04-08 22:13:00,
2013-04-08 15:18:00,66.6,17.5,29.65,NNW,344,17.0,17.0,15,0.00,,---,0.04,VWS V14.00,2013-04-08 22:18:00,
2013-04-08 15:24:00,66.6,17.5,29.65,NW,321,12.3,13.2,15,0.00,,---,0.04,VWS V14.00,2013-04-08 22:24:00,
2013-04-08 15:30:00,66.6,17.5,29.65,WSW,248,13.2,13.2,15,0.00,,---,0.04,VWS V14.00,2013-04-08 22:30:00,
2013-04-08 15:35:00,66.7,17.6,29.65,NW,324,7.6,10.1,15,0.00,,---,0.04,VWS V14.00,2013-04-08 22:35:00,
2013-04-08 15:41:00,66.6,17.5,29.65,NNW,341,10.1,10.1,15,0.00,,---,0.04,VWS V14.00,2013-04-08 22:41:00,
2013-04-08 15:46:00,66.7,17.6,29.65,NW,312,14.5,14.5,15,0.00,,---,0.04,VWS V14.00,2013-04-08 22:46:00,
2013-04-08 15:51:00,66.7,17.6,29.65,NNW,342,10.1,11.0,15,0.00,,---,0.04,VWS V14.00,2013-04-08 22:51:00,
2013-04-08 15:57:00,67.5,18.2,29.65,WNW,296,8.3,20.1,15,0.00,,---,0.04,VWS V14.00,2013-04-08 22:57:00,
2013-04-08 16:03:00,67.3,18.1,29.65,West,272,10.1,10.1,15,0.00,,---,0.04,VWS V14.00,2013-04-08 23:03:00,
2013-04-08 16:09:00,67.3,18.1,29.65,WNW,293,10.1,10.1,15,0.00,,---,0.04,VWS V14.00,2013-04-08 23:09:00,
2013-04-08 16:15:00,67.3,18.1,29.65,North,353,14.5,14.5,15,0.00,,---,0.04,VWS V14.00,2013-04-08 23:15:00,
2013-04-08 16:21:00,67.1,17.9,29.65,North,11,8.7,16.8,15,0.00,,---,0.04,VWS V14.00,2013-04-08 23:21:00,
2013-04-08 16:27:00,67.1,17.9,29.65,WNW,299,11.0,11.0,15,0.00,,---,0.04,VWS V14.00,2013-04-08 23:27:00,
2013-04-08 16:32:00,67.1,17.9,29.65,North,0,13.2,13.2,15,0.00,,---,0.04,VWS V14.00,2013-04-08 23:32:00,
2013-04-08 16:37:00,67.1,17.9,29.65,NW,306,11.0,12.8,15,0.00,,---,0.04,VWS V14.00,2013-04-08 23:37:00,
2013-04-08 16:43:00,67.5,18.2,29.65,NNW,343,8.7,15.4,15,0.00,,---,0.04,VWS V14.00,2013-04-08 23:43:00,
2013-04-08 16:49:00,67.5,18.2,29.65,WNW,286,12.3,12.3,15,0.00,,---,0.04,VWS V14.00,2013-04-08 23:49:00,
2013-04-08 16:55:00,67.3,18.1,29.65,NW,318,17.0,17.0,15,0.00,,---,0.04,VWS V14.00,2013-04-08 23:55:00,
2013-04-08 17:00:00,67.1,17.9,29.65,WNW,299,10.5,15.0,15,0.00,,---,0.04,VWS V14.00,2013-04-09 00:00:00,
2013-04-08 17:05:00,67.1,17.9,29.65,North,1,6.3,6.3,15,0.00,,---,0.04,VWS V14.00,2013-04-09 00:05:00,
2013-04-08 17:10:00,67.3,18.1,29.65,West,277,5.4,10.5,15,0.00,,---,0.04,VWS V14.00,2013-04-09 00:10:00,
2013-04-08 17:15:00,67.5,18.2,29.65,NNW,343,14.5,14.5,15,0.00,,---,0.04,VWS V14.00,2013-04-09 00:15:00,
2013-04-08 17:21:00,67.3,18.1,29.65,West,277,17.0,17.0,15,0.00,,---,0.04,VWS V14.00,2013-04-09 00:21:00,
2013-04-08 17:27:00,67.1,17.9,29.65,NW,326,10.1,10.1,15,0.00,,---,0.04,VWS V14.00,2013-04-09 00:27:00,
2013-04-08 17:32:00,66.9,17.8,29.65,WNW,285,11.0,11.0,15,0.00,,---,0.04,VWS V14.00,2013-04-09 00:32:00,
2013-04-08 17:38:00,66.6,17.5,29.65,WNW,294,13.2,13.2,15,0.00,,---,0.04,VWS V14.00,2013-04-09 00:38:00,
2013-04-08 17:44:00,66.4,17.4,29.65,North,357,5.4,5.4,15,0.00,,---,0.04,VWS V14.00,2013-04-09 00:44:00,
2013-04-08 17:50:00,66.6,17.5,29.65,NW,317,11.4,11.4,15,0.00,,---,0.04,VWS V14.00,2013-04-09 00:50:00,
2013-04-08 17:56:00,66.4,17.4,29.65,NW,323,8.7,8.7,15,0.00,,---,0.04,VWS V14.00,2013-04-09 00:56:00,
2013-04-08 18:02:00,66.0,17.1,29.65,NNW,330,11.0,11.0,15,0.00,,---,0.04,VWS V14.00,2013-04-09 01:02:00,
2013-04-08 18:08:00,66.0,17.1,29.65,NW,318,10.1,17.9,15,0.00,,---,0.04,VWS V14.00,2013-04-09 01:08:00,
2013-04-08 18:13:00,65.8,16.9,29.65,North,353,11.0,15.4,15,0.00,,---,0.04,VWS V14.00,2013-04-09 01:13:00,
2013-04-08 18:18:00,65.8,16.9,29.65,NNW,333,8.7,8.7,15,0.00,,---,0.04,VWS V14.00,2013-04-09 01:18:00,
2013-04-08 18:23:00,65.8,16.9,29.65,NW,306,11.0,11.0,15,0.00,,---,0.04,VWS V14.00,2013-04-09 01:23:00,
2013-04-08 18:28:00,65.8,16.9,29.65,NW,312,11.0,12.3,15,0.00,,---,0.04,VWS V14.00,2013-04-09 01:28:00,
2013-04-08 18:34:00,65.7,16.8,29.65,NW,317,8.3,11.0,15,0.00,,---,0.04,VWS V14.00,2013-04-09 01:34:00,
2013-04-08 18:40:00,65.5,16.6,29.68,North,353,13.6,13.6,15,0.00,,---,0.04,VWS V14.00,2013-04-09 01:40:00,
2013-04-08 18:45:00,65.3,16.5,29.68,NNW,344,7.6,11.4,15,0.00,,---,0.04,VWS V14.00,2013-04-09 01:45:00,
2013-04-08 18:50:00,65.1,16.4,29.68,NNW,333,8.1,8.1,15,0.00,,---,0.04,VWS V14.00,2013-04-09 01:50:00,
2013-04-08 18:55:00,64.9,16.2,29.68,NW,306,8.7,8.7,15,0.00,,---,0.04,VWS V14.00,2013-04-09 01:55:00,
2013-04-08 19:00:00,64.8,16.1,29.68,WNW,300,10.1,10.1,15,0.00,,---,0.04,VWS V14.00,2013-04-09 02:00:00,
2013-04-08 19:06:00,64.6,15.9,29.68,NW,314,5.4,5.4,15,0.00,,---,0.04,VWS V14.00,2013-04-09 02:06:00,
2013-04-08 19:12:00,64.4,15.8,29.68,NNW,334,5.8,8.7,15,0.00,,---,0.04,VWS V14.00,2013-04-09 02:12:00,
2013-04-08 19:18:00,64.4,15.8,29.68,NW,315,4.0,4.9,15,0.00,,---,0.04,VWS V14.00,2013-04-09 02:18:00,
2013-04-08 19:23:00,64.4,15.8,29.68,NNW,341,8.3,8.7,15,0.00,,---,0.04,VWS V14.00,2013-04-09 02:23:00,
2013-04-08 19:29:00,63.5,16.5,29.68,WNW,298,5.8,5.8,16,0.00,,---,0.04,VWS V14.00,2013-04-09 02:29:00,
2013-04-08 19:35:00,63.1,16.2,29.68,WNW,297,7.6,10.5,16,0.00,,---,0.04,VWS V14.00,2013-04-09 02:35:00,
2013-04-08 19:40:00,62.8,15.9,29.68,NW,311,11.0,11.0,16,0.00,,---,0.04,VWS V14.00,2013-04-09 02:40:00,
2013-04-08 19:45:00,62.6,15.8,29.68,NW,313,8.3,8.3,16,0.00,,---,0.04,VWS V14.00,2013-04-09 02:45:00,
2013-04-08 19:52:00,62.4,15.7,29.68,NNW,337,8.1,9.2,16,0.00,,---,0.04,VWS V14.00,2013-04-09 02:52:00,
2013-04-08 19:57:00,62.2,15.5,29.68,North,350,4.9,7.6,16,0.00,,---,0.04,VWS V14.00,2013-04-09 02:57:00,
2013-04-08 20:02:00,61.9,15.2,29.68,NW,318,8.1,8.1,16,0.00,,---,0.04,VWS V14.00,2013-04-09 03:02:00,
2013-04-08 20:07:00,61.9,15.2,29.68,NW,312,6.3,6.3,16,0.00,,---,0.04,VWS V14.00,2013-04-09 03:07:00,
2013-04-08 20:12:00,61.7,15.1,29.68,North,353,5.8,5.8,16,0.00,,---,0.04,VWS V14.00,2013-04-09 03:12:00,
2013-04-08 20:17:00,61.5,14.9,29.68,NNW,342,5.8,5.8,16,0.00,,---,0.04,VWS V14.00,2013-04-09 03:17:00,
2013-04-08 20:22:00,61.3,14.8,29.68,NNW,336,5.8,5.8,16,0.00,,---,0.04,VWS V14.00,2013-04-09 03:22:00,
2013-04-08 20:27:00,61.2,14.6,29.68,NNW,342,6.3,6.3,16,0.00,,---,0.04,VWS V14.00,2013-04-09 03:27:00,
2013-04-08 20:32:00,60.8,14.4,29.68,NW,326,8.3,10.1,16,0.00,,---,0.04,VWS V14.00,2013-04-09 03:32:00,
2013-04-08 20:37:00,60.6,15.6,29.68,NNW,335,3.1,3.1,17,0.00,,---,0.04,VWS V14.00,2013-04-09 03:37:00,
2013-04-08 20:43:00,60.1,15.1,29.71,NW,316,3.6,6.3,17,0.00,,---,0.04,VWS V14.00,2013-04-09 03:43:00,
2013-04-08 20:49:00,59.9,15.0,29.71,NNW,330,7.2,7.2,17,0.00,,---,0.04,VWS V14.00,2013-04-09 03:49:00,
2013-04-08 20:54:00,59.9,15.0,29.71,NW,324,6.3,10.5,17,0.00,,---,0.04,VWS V14.00,2013-04-09 03:54:00,
2013-04-08 21:02:00,59.7,14.9,29.71,NNW,329,5.4,5.8,17,0.00,,---,0.04,VWS V14.00,2013-04-09 04:02:00,
2013-04-08 21:04:00,59.5,14.7,29.71,NNW,345,5.8,5.8,17,0.00,,---,0.04,VWS V14.00,2013-04-09 04:04:00,
2013-04-08 21:07:00,59.5,14.7,29.71,NNW,328,11.0,11.0,17,0.00,,---,0.04,VWS V14.00,2013-04-09 04:07:00,
2013-04-08 21:12:00,59.4,14.6,29.71,NNW,336,5.4,5.4,17,0.00,,---,0.04,VWS V14.00,2013-04-09 04:12:00,
2013-04-08 21:17:00,59.4,14.6,29.71,NNW,330,10.5,10.5,17,0.00,,---,0.04,VWS V14.00,2013-04-09 04:17:00,
2013-04-08 21:23:00,59.0,14.3,29.71,NNW,332,5.8,5.8,17,0.00,,---,0.04,VWS V14.00,2013-04-09 04:23:00,
2013-04-08 21:28:00,59.0,14.3,29.71,NW,321,6.3,6.3,17,0.00,,---,0.04,VWS V14.00,2013-04-09 04:28:00,
2013-04-08 21:33:00,58.8,14.1,29.71,NNW,348,4.9,4.9,17,0.00,,---,0.04,VWS V14.00,2013-04-09 04:33:00,
2013-04-08 21:38:00,58.6,14.0,29.74,NW,305,6.3,6.3,17,0.00,,---,0.04,VWS V14.00,2013-04-09 04:38:00,
2013-04-08 21:44:00,58.5,13.8,29.74,WNW,294,6.3,6.3,17,0.00,,---,0.04,VWS V14.00,2013-04-09 04:44:00,
2013-04-08 21:50:00,58.1,13.5,29.74,NNW,331,4.0,4.0,17,0.00,,---,0.04,VWS V14.00,2013-04-09 04:50:00,
2013-04-08 21:55:00,57.9,13.4,29.74,WNW,300,5.8,5.8,17,0.00,,---,0.04,VWS V14.00,2013-04-09 04:55:00,
2013-04-08 22:01:00,57.9,15.9,29.74,NNW,334,3.6,8.3,19,0.00,,---,0.04,VWS V14.00,2013-04-09 05:01:00,
2013-04-08 22:06:00,57.9,15.9,29.74,NNW,339,8.3,8.3,19,0.00,,---,0.04,VWS V14.00,2013-04-09 05:06:00,
2013-04-08 22:11:00,57.6,15.6,29.74,NNE,29,5.8,5.8,19,0.00,,---,0.04,VWS V14.00,2013-04-09 05:11:00,
2013-04-08 22:16:00,57.6,15.6,29.74,NW,315,5.4,5.4,19,0.00,,---,0.04,VWS V14.00,2013-04-09 05:16:00,
2013-04-08 22:22:00,57.4,15.5,29.74,North,349,9.6,9.6,19,0.00,,---,0.04,VWS V14.00,2013-04-09 05:22:00,
2013-04-08 22:27:00,57.4,15.5,29.74,NNW,345,8.1,8.1,19,0.00,,---,0.04,VWS V14.00,2013-04-09 05:27:00,
2013-04-08 22:32:00,57.4,15.5,29.74,NNW,338,7.6,7.6,19,0.00,,---,0.04,VWS V14.00,2013-04-09 05:32:00,
2013-04-08 22:37:00,57.2,15.3,29.74,NW,312,6.3,6.3,19,0.00,,---,0.04,VWS V14.00,2013-04-09 05:37:00,
2013-04-08 22:42:00,56.8,16.2,29.74,North,353,5.4,5.8,20,0.00,,---,0.04,VWS V14.00,2013-04-09 05:42:00,
2013-04-08 22:48:00,56.7,16.1,29.74,North,0,5.4,5.4,20,0.00,,---,0.04,VWS V14.00,2013-04-09 05:48:00,
2013-04-08 22:53:00,56.3,15.8,29.74,North,1,6.3,7.6,20,0.00,,---,0.04,VWS V14.00,2013-04-09 05:53:00,
2013-04-08 22:59:00,56.1,15.6,29.74,North,357,4.9,5.4,20,0.00,,---,0.04,VWS V14.00,2013-04-09 05:59:00,
2013-04-08 23:04:00,55.9,15.5,29.74,NNW,339,3.1,6.3,20,0.00,,---,0.04,VWS V14.00,2013-04-09 06:04:00,
2013-04-08 23:09:00,55.8,17.5,29.74,NNW,345,7.6,7.6,22,0.00,,---,0.04,VWS V14.00,2013-04-09 06:09:00,
2013-04-08 23:14:00,55.6,17.4,29.77,North,357,5.4,11.0,22,0.00,,---,0.04,VWS V14.00,2013-04-09 06:14:00,
2013-04-08 23:20:00,55.4,17.2,29.77,North,350,12.3,12.3,22,0.00,,---,0.04,VWS V14.00,2013-04-09 06:20:00,
2013-04-08 23:25:00,55.4,17.2,29.77,WNW,293,10.5,10.5,22,0.00,,---,0.04,VWS V14.00,2013-04-09 06:25:00,
2013-04-08 23:31:00,55.4,17.2,29.77,NNW,338,7.6,8.7,22,0.00,,---,0.04,VWS V14.00,2013-04-09 06:31:00,
2013-04-08 23:37:00,55.2,18.1,29.77,North,357,7.6,7.6,23,0.00,,---,0.04,VWS V14.00,2013-04-09 06:37:00,
2013-04-08 23:42:00,55.2,20.0,29.77,NNW,335,8.7,8.7,25,0.00,,---,0.04,VWS V14.00,2013-04-09 06:42:00,
2013-04-08 23:48:00,55.0,19.9,29.77,North,350,7.6,8.1,25,0.00,,---,0.04,VWS V14.00,2013-04-09 06:48:00,
2013-04-08 23:53:00,54.9,19.7,29.77,NE,38,8.3,8.3,25,0.00,,---,0.04,VWS V14.00,2013-04-09 06:53:00,
2013-04-08 23:58:00,54.7,19.6,29.77,North,357,3.6,6.3,25,0.00,,---,0.04,VWS V14.00,2013-04-09 06:58:00,